KSPG/SPG METAR and TAF weather

Enter ICAO airport designator
Station Type Date Time Source
KSPG METAR 2020/08/10 18:53 UTC NOAA

KSPG 101853Z 09003KT 10SM CLR 34/24 A3006 RMK AO2 SLP178 T03390239


Station Type Date Time Source
KSPG Decoded METAR 2020/08/10 18:53 UTC NOAA

ST PETERSBURG WHITTED AIRPORT , FL, United States (KSPG) 27-46N 082-38W 2M
Aug 10, 2020 - 02:53 PM EDT / 2020.08.10 1853 UTC
Wind: from the E (090 degrees) at 3 MPH (3 KT):0
Visibility: 10 mile(s):0
Sky conditions: clear
Temperature: 93.0 F (33.9 C)
Heat index: 104.5 F (40.3 C):1
Dew Point: 75.0 F (23.9 C)
Relative Humidity: 56%
Pressure (altimeter): 30.06 in. Hg (1017 hPa)
ob: KSPG 101853Z 09003KT 10SM CLR 34/24 A3006 RMK AO2 SLP178 T03390239
cycle: 19

Station Type Date Time Source
KSPG TAF UTC NOAA

Error!

Example: see airport list